createdAt,value
2023-02-18T00:01:37.437Z,102115.66
2023-02-18T00:04:04.581Z,102115.66
2023-02-18T00:06:35.044Z,102114.75
2023-02-18T00:09:04.889Z,102119.97
2023-02-18T00:11:35.893Z,102108.56
2023-02-18T00:14:06.409Z,102108.53
2023-02-18T00:16:33.605Z,102107.72
2023-02-18T00:19:05.433Z,102099.78
2023-02-18T00:21:34.875Z,102094.50
2023-02-18T00:24:02.193Z,102082.16
2023-02-18T00:26:29.227Z,102090.97
2023-02-18T00:28:56.454Z,102089.25
2023-02-18T00:31:26.435Z,102084.84
2023-02-18T00:33:54.727Z,102083.94
2023-02-18T00:36:23.347Z,102080.41
2023-02-18T00:38:55.053Z,102078.66
2023-02-18T00:41:24.961Z,102081.28
2023-02-18T00:43:52.073Z,102064.56
2023-02-18T00:46:21.229Z,102059.28
2023-02-18T00:48:48.343Z,102060.16
2023-02-18T00:51:15.473Z,102060.16
2023-02-18T00:53:42.576Z,102064.53
2023-02-18T00:56:10.937Z,102061.91
2023-02-18T00:58:38.436Z,102050.47
2023-02-18T01:01:08.646Z,102049.56
2023-02-18T01:03:38.672Z,102060.13
2023-02-18T01:06:07.330Z,102043.41
2023-02-18T01:08:36.901Z,102040.78
2023-02-18T01:11:05.447Z,102039.88
2023-02-18T01:13:32.909Z,102036.38
2023-02-18T01:15:59.948Z,102042.53
2023-02-18T01:18:29.996Z,102046.03
2023-02-18T01:20:57.579Z,102044.25
2023-02-18T01:23:24.837Z,102036.34
2023-02-18T01:25:53.039Z,102038.97
2023-02-18T01:28:21.489Z,102038.13
2023-02-18T01:30:49.919Z,102031.06
2023-02-18T01:33:18.673Z,102030.19
2023-02-18T01:35:45.809Z,102020.53
2023-02-18T01:38:12.925Z,102020.50
2023-02-18T01:40:52.728Z,102020.53
2023-02-18T01:43:22.534Z,102012.66
2023-02-18T01:46:13.710Z,102012.66
2023-02-18T01:48:55.124Z,102021.47
2023-02-18T01:51:28.648Z,102023.19
2023-02-18T01:54:06.460Z,102014.41
2023-02-18T01:57:01.431Z,102016.16
2023-02-18T01:59:37.360Z,102011.78
2023-02-18T02:02:08.218Z,102011.78
2023-02-18T02:04:35.426Z,102018.00
2023-02-18T02:07:03.557Z,102006.56
2023-02-18T02:09:33.125Z,102010.09
2023-02-18T02:12:40.440Z,102007.50
2023-02-18T02:15:24.158Z,102004.88
2023-02-18T02:18:17.058Z,102002.28
2023-02-18T02:21:38.869Z,101996.19
2023-02-18T02:24:39.952Z,101996.19
2023-02-18T02:27:21.423Z,101985.72
2023-02-18T02:30:07.122Z,101980.50
2023-02-18T02:32:51.237Z,101977.84
2023-02-18T02:35:39.171Z,101980.47
2023-02-18T02:38:40.124Z,101963.81
2023-02-18T02:41:19.595Z,101954.19
2023-02-18T02:44:11.247Z,101954.16
2023-02-18T02:46:45.354Z,101954.16
2023-02-18T02:49:29.053Z,101948.00
2023-02-18T02:52:13.422Z,101940.09
2023-02-18T02:54:40.619Z,101934.00
2023-02-18T02:57:13.855Z,101927.00
2023-02-18T03:00:01.326Z,101912.06
2023-02-18T03:02:39.021Z,101905.91
2023-02-18T03:05:23.896Z,101901.50
2023-02-18T03:08:04.788Z,101896.25
2023-02-18T03:10:44.621Z,101895.34
2023-02-18T03:13:32.601Z,101890.91
2023-02-18T03:16:17.582Z,101882.19
2023-02-18T03:18:59.803Z,101878.66
2023-02-18T03:21:42.158Z,101869.00
2023-02-18T03:24:27.488Z,101869.00
2023-02-18T03:27:04.385Z,101861.97
2023-02-18T03:29:33.555Z,101851.44
2023-02-18T03:32:06.874Z,101853.19
2023-02-18T03:34:41.766Z,101857.59
2023-02-18T03:37:12.224Z,101848.81
2023-02-18T03:39:46.274Z,101848.88
2023-02-18T03:42:14.070Z,101841.81
2023-02-18T03:44:41.275Z,101829.53
2023-02-18T03:47:08.572Z,101829.53
2023-02-18T03:49:35.644Z,101834.78
2023-02-18T03:52:02.773Z,101830.41
2023-02-18T03:54:29.749Z,101821.63
2023-02-18T03:56:56.817Z,101814.56
2023-02-18T03:59:23.744Z,101813.72
2023-02-18T04:01:50.775Z,101811.06
2023-02-18T04:04:17.816Z,101817.25
2023-02-18T04:06:44.845Z,101814.59
2023-02-18T04:09:11.931Z,101806.69
2023-02-18T04:11:41.114Z,101804.06
2023-02-18T04:14:08.903Z,101799.66
2023-02-18T04:16:36.152Z,101794.38
2023-02-18T04:19:03.187Z,101788.22
2023-02-18T04:21:30.429Z,101796.16
2023-02-18T04:23:57.468Z,101787.44
2023-02-18T04:26:24.453Z,101777.78
2023-02-18T04:28:51.619Z,101786.56
2023-02-18T04:31:18.725Z,101784.78
2023-02-18T04:33:46.565Z,101783.91
2023-02-18T04:36:13.584Z,101769.91
2023-02-18T04:38:42.054Z,101777.81
2023-02-18T04:41:09.081Z,101781.31
2023-02-18T04:43:36.141Z,101786.59
2023-02-18T04:46:03.305Z,101780.44
2023-02-18T04:48:30.855Z,101779.56
2023-02-18T04:50:57.810Z,101774.25
2023-02-18T04:53:24.813Z,101775.13
2023-02-18T04:55:53.308Z,101772.50
2023-02-18T04:58:21.472Z,101768.13
2023-02-18T05:00:48.665Z,101761.97
2023-02-18T05:03:16.314Z,101764.59
2023-02-18T05:05:43.440Z,101761.97
2023-02-18T05:08:10.409Z,101775.13
2023-02-18T05:10:39.024Z,101771.66
2023-02-18T05:13:06.135Z,101755.81
2023-02-18T05:15:33.286Z,101754.94
2023-02-18T05:18:00.376Z,101755.88
2023-02-18T05:20:28.068Z,101753.25
2023-02-18T05:22:55.082Z,101752.38
2023-02-18T05:25:22.193Z,101733.94
2023-02-18T05:27:49.237Z,101729.59
2023-02-18T05:30:16.342Z,101725.13
2023-02-18T05:32:43.365Z,101725.13
2023-02-18T05:35:10.622Z,101730.38
2023-02-18T05:37:37.674Z,101730.41
2023-02-18T05:40:06.185Z,101720.78
2023-02-18T05:42:33.215Z,101719.91
2023-02-18T05:45:00.763Z,101710.31
2023-02-18T05:47:27.860Z,101717.34
2023-02-18T05:49:56.037Z,101704.19
2023-02-18T05:52:23.221Z,101713.00
2023-02-18T05:54:50.285Z,101710.34
2023-02-18T05:57:17.424Z,101697.19
2023-02-18T05:59:44.441Z,101706.84
2023-02-18T06:02:11.374Z,101703.34
2023-02-18T06:04:39.263Z,101701.59
2023-02-18T06:07:06.572Z,101697.19
2023-02-18T06:09:33.622Z,101698.97
2023-02-18T06:12:00.713Z,101702.44
2023-02-18T06:14:27.977Z,101707.72
2023-02-18T06:16:54.967Z,101707.78
2023-02-18T06:19:21.990Z,101715.69
2023-02-18T06:21:48.973Z,101715.69
2023-02-18T06:24:15.994Z,101715.69
2023-02-18T06:26:43.011Z,101704.28
2023-02-18T06:29:09.979Z,101709.56
2023-02-18T06:31:37.024Z,101712.19
2023-02-18T06:34:04.105Z,101690.25
2023-02-18T06:36:31.158Z,101698.13
2023-02-18T06:38:59.259Z,101689.38
2023-02-18T06:41:26.272Z,101688.50
2023-02-18T06:43:53.311Z,101692.00
2023-02-18T06:46:20.567Z,101686.78
2023-02-18T06:48:48.243Z,101682.38
2023-02-18T06:51:16.194Z,101686.78
2023-02-18T06:53:45.594Z,101692.03
2023-02-18T06:56:12.716Z,101698.16
2023-02-18T06:58:39.678Z,101693.78
2023-02-18T07:01:06.965Z,101695.53
2023-02-18T07:03:34.646Z,101698.16
2023-02-18T07:06:01.581Z,101708.72
2023-02-18T07:08:30.813Z,101705.22
2023-02-18T07:10:57.810Z,101714.88
2023-02-18T07:13:24.822Z,101707.84
2023-02-18T07:15:51.816Z,101702.59
2023-02-18T07:18:18.832Z,101716.66
2023-02-18T07:20:46.645Z,101706.03
2023-02-18T07:23:13.571Z,101700.78
2023-02-18T07:25:41.041Z,101698.13
2023-02-18T07:28:08.028Z,101701.66
2023-02-18T07:30:35.067Z,101713.97
2023-02-18T07:33:03.994Z,101714.00
2023-02-18T07:35:31.341Z,101703.47
2023-02-18T07:37:58.284Z,101711.41
2023-02-18T07:40:25.267Z,101725.44
2023-02-18T07:42:52.273Z,101725.47
2023-02-18T07:45:19.491Z,101725.47
2023-02-18T07:47:46.557Z,101725.47
2023-02-18T07:50:13.600Z,101735.16
2023-02-18T07:52:40.636Z,101731.69
2023-02-18T07:55:08.575Z,101729.06
2023-02-18T07:57:55.610Z,101731.63
2023-02-18T08:00:23.009Z,101736.88
2023-02-18T08:02:49.937Z,101735.16
2023-02-18T08:05:16.934Z,101735.97
2023-02-18T08:07:44.108Z,101742.09
2023-02-18T08:10:12.961Z,101734.19
2023-02-18T08:12:39.964Z,101735.88
2023-02-18T08:15:07.520Z,101732.31
2023-02-18T08:17:34.540Z,101740.16
2023-02-18T08:20:01.606Z,101740.16
2023-02-18T08:22:28.572Z,101741.91
2023-02-18T08:24:56.406Z,101749.78
2023-02-18T08:27:24.466Z,101751.47
2023-02-18T08:29:52.267Z,101741.66
2023-02-18T08:32:19.270Z,101738.00
2023-02-18T08:34:46.287Z,101733.47
2023-02-18T08:37:13.443Z,101735.19
2023-02-18T08:39:40.468Z,101739.50
2023-02-18T08:42:07.807Z,101735.00
2023-02-18T08:44:34.814Z,101721.69
2023-02-18T08:47:01.823Z,101735.75
2023-02-18T08:49:28.880Z,101731.28
2023-02-18T08:51:57.688Z,101732.13
2023-02-18T08:54:24.726Z,101730.38
2023-02-18T08:56:56.110Z,101733.00
2023-02-18T08:59:26.885Z,101749.72
2023-02-18T09:01:54.086Z,101736.53
2023-02-18T09:04:21.505Z,101735.66
2023-02-18T09:06:49.998Z,101733.91
2023-02-18T09:09:18.002Z,101729.56
2023-02-18T09:11:45.929Z,101748.03
2023-02-18T09:14:13.250Z,101744.50
2023-02-18T09:16:41.613Z,101744.53
2023-02-18T09:19:09.597Z,101742.84
2023-02-18T09:21:36.831Z,101743.72
2023-02-18T09:24:04.066Z,101750.78
2023-02-18T09:26:34.276Z,101754.34
2023-02-18T09:29:01.653Z,101749.06
2023-02-18T09:31:29.807Z,101747.31
2023-02-18T09:34:01.708Z,101735.94
2023-02-18T09:36:29.865Z,101743.06
2023-02-18T09:38:58.780Z,101737.00
2023-02-18T09:41:42.707Z,101744.09
2023-02-18T09:44:31.077Z,101738.00
2023-02-18T09:47:05.261Z,101754.81
2023-02-18T09:49:39.869Z,101753.03
2023-02-18T09:52:31.789Z,101750.41
2023-02-18T09:55:00.621Z,101757.47
2023-02-18T09:57:46.277Z,101766.31
2023-02-18T10:00:23.309Z,101756.63
2023-02-18T10:02:59.013Z,101744.31
2023-02-18T10:05:31.251Z,101747.84
2023-02-18T10:08:24.578Z,101746.06
2023-02-18T10:10:51.682Z,101745.16
2023-02-18T10:13:25.039Z,101749.56
2023-02-18T10:15:52.675Z,101760.06
2023-02-18T10:18:33.787Z,101763.56
2023-02-18T10:21:18.429Z,101756.56
2023-02-18T10:24:05.301Z,101762.78
2023-02-18T10:26:37.232Z,101777.78
2023-02-18T10:29:10.127Z,101773.38
2023-02-18T10:31:44.705Z,101777.81
2023-02-18T10:34:30.716Z,101769.94
2023-02-18T10:37:46.704Z,101784.81
2023-02-18T10:41:01.643Z,101785.69
2023-02-18T10:43:45.521Z,101765.50
2023-02-18T10:46:28.998Z,101785.63
2023-02-18T10:49:13.422Z,101790.00
2023-02-18T10:51:50.263Z,101796.13
2023-02-18T10:54:17.575Z,101796.09
2023-02-18T10:56:51.428Z,101801.31
2023-02-18T10:59:32.260Z,101802.22
2023-02-18T11:02:05.668Z,101800.53
2023-02-18T11:04:42.712Z,101796.19
2023-02-18T11:07:19.209Z,101800.63
2023-02-18T11:10:00.413Z,101804.19
2023-02-18T11:12:46.189Z,101797.09
2023-02-18T11:15:27.088Z,101796.25
2023-02-18T11:17:59.414Z,101796.31
2023-02-18T11:20:37.791Z,101796.34
2023-02-18T11:23:07.778Z,101799.91
2023-02-18T11:25:41.076Z,101795.53
2023-02-18T11:28:45.146Z,101798.25
2023-02-18T11:31:23.332Z,101803.47
2023-02-18T11:33:56.690Z,101802.63
2023-02-18T11:36:36.235Z,101794.75
2023-02-18T11:39:19.849Z,101785.94
2023-02-18T11:42:05.439Z,101793.84
2023-02-18T11:44:56.122Z,101785.09
2023-02-18T11:47:36.656Z,101779.84
2023-02-18T11:50:09.583Z,101781.59
2023-02-18T11:52:51.530Z,101781.56
2023-02-18T11:55:31.017Z,101781.59
2023-02-18T11:58:02.595Z,101792.09
2023-02-18T12:00:43.802Z,101780.63
2023-02-18T12:03:56.834Z,101781.44
2023-02-18T12:06:33.432Z,101776.94
2023-02-18T12:09:14.191Z,101778.53
2023-02-18T12:11:47.967Z,101766.94
2023-02-18T12:14:20.763Z,101764.97
2023-02-18T12:17:56.148Z,101770.84
2023-02-18T12:21:06.076Z,101752.13
2023-02-18T12:24:01.819Z,101752.81
2023-02-18T12:26:54.633Z,101759.84
2023-02-18T12:29:56.741Z,101751.13
2023-02-18T12:33:22.831Z,101749.38
2023-02-18T12:36:00.705Z,101755.63
2023-02-18T12:38:59.573Z,101757.38
2023-02-18T12:41:59.393Z,101758.19
2023-02-18T12:44:36.677Z,101764.22
2023-02-18T12:47:38.873Z,101754.50
2023-02-18T12:50:30.838Z,101760.56
2023-02-18T12:53:42.190Z,101754.38
2023-02-18T12:56:43.942Z,101754.28
2023-02-18T12:59:35.529Z,101757.81
2023-02-18T13:02:39.617Z,101759.56
2023-02-18T13:05:28.188Z,101761.25
2023-02-18T13:08:07.456Z,101759.56
2023-02-18T13:11:13.306Z,101758.63
2023-02-18T13:14:00.748Z,101767.22
2023-02-18T13:16:31.200Z,101767.09
2023-02-18T13:19:44.079Z,101774.06
2023-02-18T13:22:15.596Z,101766.91
2023-02-18T13:24:47.675Z,101767.66
2023-02-18T13:27:41.935Z,101763.94
2023-02-18T13:30:38.397Z,101760.25
2023-02-18T13:33:34.339Z,101766.44
2023-02-18T13:36:16.736Z,101772.66
2023-02-18T13:39:03.766Z,101776.25
2023-02-18T13:41:38.154Z,101766.63
2023-02-18T13:44:28.090Z,101768.31
2023-02-18T13:46:58.402Z,101764.88
2023-02-18T13:49:33.689Z,101756.97
2023-02-18T13:52:04.665Z,101764.06
2023-02-18T13:54:42.446Z,101764.06
2023-02-18T13:57:21.676Z,101763.22
2023-02-18T14:00:00.931Z,101762.28
2023-02-18T14:02:36.848Z,101770.16
2023-02-18T14:05:20.573Z,101764.03
2023-02-18T14:08:11.040Z,101765.78
2023-02-18T14:10:39.163Z,101766.75
2023-02-18T14:13:22.717Z,101762.41
2023-02-18T14:16:01.372Z,101779.13
2023-02-18T14:18:55.216Z,101764.22
2023-02-18T14:21:41.452Z,101772.09
2023-02-18T14:24:11.957Z,101759.81
2023-02-18T14:26:49.153Z,101771.25
2023-02-18T14:29:30.365Z,101764.16
2023-02-18T14:32:05.002Z,101767.69
2023-02-18T14:35:06.432Z,101775.63
2023-02-18T14:38:06.900Z,101782.56
2023-02-18T14:41:04.614Z,101785.09
2023-02-18T14:43:53.203Z,101785.81
2023-02-18T14:46:35.686Z,101786.47
2023-02-18T14:49:44.759Z,101776.56
2023-02-18T14:52:30.512Z,101782.69
2023-02-18T14:55:01.509Z,101776.56
2023-02-18T14:57:44.579Z,101766.84
2023-02-18T15:00:22.946Z,101773.00
2023-02-18T15:02:55.080Z,101784.31
2023-02-18T15:05:37.490Z,101787.75
2023-02-18T15:08:26.029Z,101783.22
2023-02-18T15:11:06.158Z,101783.22
2023-02-18T15:13:44.253Z,101776.09
2023-02-18T15:16:25.177Z,101778.63
2023-02-18T15:19:03.403Z,101784.75
2023-02-18T15:21:40.189Z,101797.88
2023-02-18T15:24:18.830Z,101781.19
2023-02-18T15:26:52.120Z,101781.19
2023-02-18T15:29:24.846Z,101788.25
2023-02-18T15:31:52.659Z,101793.50
2023-02-18T15:34:35.577Z,101782.91
2023-02-18T15:37:07.261Z,101786.50
2023-02-18T15:39:38.658Z,101780.44
2023-02-18T15:42:33.141Z,101786.63
2023-02-18T15:45:30.459Z,101784.97
2023-02-18T15:47:59.598Z,101779.72
2023-02-18T15:50:30.404Z,101797.44
2023-02-18T15:53:06.298Z,101787.84
2023-02-18T15:55:38.845Z,101787.97
2023-02-18T15:58:23.906Z,101782.75
2023-02-18T16:00:57.313Z,101789.03
2023-02-18T16:03:28.635Z,101778.50
2023-02-18T16:06:23.637Z,101786.53
2023-02-18T16:09:12.449Z,101776.00
2023-02-18T16:11:45.984Z,101783.13
2023-02-18T16:14:34.887Z,101771.75
2023-02-18T16:17:16.574Z,101778.84
2023-02-18T16:20:04.472Z,101776.34
2023-02-18T16:22:33.137Z,101781.72
2023-02-18T16:25:15.155Z,101786.22
2023-02-18T16:27:59.144Z,101784.53
2023-02-18T16:30:30.439Z,101788.97
2023-02-18T16:32:58.577Z,101785.47
2023-02-18T16:35:32.706Z,101794.34
2023-02-18T16:38:06.926Z,101790.00
2023-02-18T16:40:36.999Z,101778.63
2023-02-18T16:43:32.586Z,101791.88
2023-02-18T16:46:14.524Z,101795.47
2023-02-18T16:48:45.414Z,101796.41
2023-02-18T16:51:20.852Z,101790.34
2023-02-18T16:53:48.263Z,101789.53
2023-02-18T16:56:21.321Z,101786.97
2023-02-18T16:58:48.336Z,101793.94
2023-02-18T17:01:30.841Z,101792.19
2023-02-18T17:04:01.557Z,101792.19
2023-02-18T17:06:29.826Z,101797.53
2023-02-18T17:08:56.784Z,101787.00
2023-02-18T17:11:30.092Z,101793.97
2023-02-18T17:13:59.481Z,101789.56
2023-02-18T17:16:27.870Z,101788.63
2023-02-18T17:18:54.911Z,101790.38
2023-02-18T17:21:25.358Z,101788.63
2023-02-18T17:23:52.925Z,101797.44
2023-02-18T17:26:27.211Z,101793.91
2023-02-18T17:28:55.772Z,101790.47
2023-02-18T17:31:37.867Z,101799.22
2023-02-18T17:34:08.905Z,101794.84
2023-02-18T17:36:35.988Z,101788.66
2023-02-18T17:39:06.287Z,101785.19
2023-02-18T17:41:33.418Z,101783.34
2023-02-18T17:44:00.343Z,101791.28
2023-02-18T17:46:27.315Z,101778.06
2023-02-18T17:48:54.234Z,101781.56
2023-02-18T17:51:26.214Z,101789.47
2023-02-18T17:53:53.623Z,101785.09
2023-02-18T17:56:21.099Z,101788.63
2023-02-18T17:58:48.749Z,101784.28
2023-02-18T18:01:18.456Z,101789.63
2023-02-18T18:03:45.501Z,101798.53
2023-02-18T18:06:18.877Z,101795.09
2023-02-18T18:08:47.542Z,101805.72
2023-02-18T18:11:20.737Z,101803.16
2023-02-18T18:13:48.433Z,101808.56
2023-02-18T18:16:17.858Z,101804.28
2023-02-18T18:18:45.332Z,101798.19
2023-02-18T18:21:33.695Z,101795.56
2023-02-18T18:24:01.427Z,101797.38
2023-02-18T18:26:29.181Z,101799.16
2023-02-18T18:28:56.121Z,101795.69
2023-02-18T18:31:23.107Z,101793.03
2023-02-18T18:33:53.198Z,101791.34
2023-02-18T18:36:24.103Z,101787.84
2023-02-18T18:38:52.305Z,101792.28
2023-02-18T18:41:22.672Z,101794.06
2023-02-18T18:43:49.925Z,101790.53
2023-02-18T18:46:17.724Z,101787.06
2023-02-18T18:48:44.815Z,101794.16
2023-02-18T18:51:30.001Z,101778.31
2023-02-18T18:53:57.136Z,101777.50
2023-02-18T18:56:24.119Z,101774.88
2023-02-18T18:58:51.284Z,101775.75
2023-02-18T19:01:27.220Z,101773.97
2023-02-18T19:03:54.417Z,101785.41
2023-02-18T19:06:22.001Z,101787.19
2023-02-18T19:08:49.050Z,101785.41
2023-02-18T19:11:17.380Z,101785.44
2023-02-18T19:13:45.950Z,101787.19
2023-02-18T19:16:26.539Z,101784.56
2023-02-18T19:18:54.310Z,101774.06
2023-02-18T19:21:21.393Z,101788.09
2023-02-18T19:23:48.391Z,101779.28
2023-02-18T19:26:18.989Z,101774.94
2023-02-18T19:28:46.320Z,101776.66
2023-02-18T19:31:14.023Z,101774.94
2023-02-18T19:33:41.715Z,101781.06
2023-02-18T19:36:11.523Z,101773.16
2023-02-18T19:38:39.492Z,101767.88
2023-02-18T19:41:16.872Z,101757.34
2023-02-18T19:43:46.500Z,101758.22
2023-02-18T19:46:17.700Z,101774.06
2023-02-18T19:48:50.401Z,101762.63
2023-02-18T19:51:17.749Z,101766.09
2023-02-18T19:53:46.006Z,101749.44
2023-02-18T19:56:13.072Z,101745.91
2023-02-18T19:58:40.200Z,101747.66
2023-02-18T20:01:15.202Z,101737.13
2023-02-18T20:03:43.653Z,101742.38
2023-02-18T20:06:20.162Z,101741.50
2023-02-18T20:08:47.445Z,101745.91
2023-02-18T20:11:14.447Z,101741.50
2023-02-18T20:13:42.104Z,101741.50
2023-02-18T20:16:12.431Z,101741.50
2023-02-18T20:18:39.408Z,101738.81
2023-02-18T20:21:06.489Z,101737.97
2023-02-18T20:23:33.696Z,101737.03
2023-02-18T20:26:06.365Z,101728.25
2023-02-18T20:28:33.350Z,101729.13
2023-02-18T20:31:15.103Z,101734.41
2023-02-18T20:33:42.754Z,101725.59
2023-02-18T20:36:13.394Z,101720.34
2023-02-18T20:38:40.375Z,101722.94
2023-02-18T20:41:14.694Z,101715.06
2023-02-18T20:43:42.092Z,101712.47
2023-02-18T20:46:13.594Z,101701.03
2023-02-18T20:48:40.780Z,101700.16
2023-02-18T20:51:14.348Z,101691.41
2023-02-18T20:53:43.485Z,101688.81
2023-02-18T20:56:10.770Z,101692.34
2023-02-18T20:58:38.552Z,101687.09
2023-02-18T21:01:20.062Z,101680.97
2023-02-18T21:03:47.757Z,101683.63
2023-02-18T21:06:19.350Z,101687.97
2023-02-18T21:08:49.373Z,101688.88
2023-02-18T21:11:20.880Z,101690.66
2023-02-18T21:13:50.751Z,101690.66
2023-02-18T21:16:20.114Z,101685.41
2023-02-18T21:18:47.411Z,101690.63
2023-02-18T21:21:14.997Z,101699.44
2023-02-18T21:23:42.011Z,101701.13
2023-02-18T21:26:13.460Z,101688.84
2023-02-18T21:28:41.190Z,101684.44
2023-02-18T21:31:26.175Z,101685.31
2023-02-18T21:33:53.575Z,101678.28
2023-02-18T21:36:21.007Z,101680.06
2023-02-18T21:38:53.259Z,101678.22
2023-02-18T21:41:20.805Z,101680.00
2023-02-18T21:43:48.713Z,101670.38
2023-02-18T21:46:28.942Z,101666.84
2023-02-18T21:49:03.301Z,101669.50
2023-02-18T21:51:53.063Z,101664.31
2023-02-18T21:54:44.342Z,101666.13
2023-02-18T21:57:15.195Z,101660.03
2023-02-18T21:59:42.720Z,101663.56
2023-02-18T22:02:17.211Z,101658.31
2023-02-18T22:04:45.579Z,101654.81
2023-02-18T22:07:12.709Z,101647.81
2023-02-18T22:09:40.068Z,101629.34
2023-02-18T22:12:08.263Z,101636.34
2023-02-18T22:14:35.278Z,101639.84
2023-02-18T22:17:02.350Z,101653.00
2023-02-18T22:19:29.342Z,101639.78
2023-02-18T22:21:56.719Z,101650.28
2023-02-18T22:24:24.362Z,101636.22
2023-02-18T22:26:51.315Z,101641.50
2023-02-18T22:29:20.493Z,101643.19
2023-02-18T22:31:49.491Z,101644.03
2023-02-18T22:34:17.312Z,101651.94
2023-02-18T22:36:44.356Z,101658.09
2023-02-18T22:39:13.292Z,101660.72
2023-02-18T22:41:40.273Z,101663.31
2023-02-18T22:44:12.650Z,101668.59
2023-02-18T22:46:40.157Z,101678.25
2023-02-18T22:49:08.513Z,101665.09
2023-02-18T22:51:39.899Z,101672.09
2023-02-18T22:54:16.230Z,101674.75
2023-02-18T22:56:45.898Z,101660.66
2023-02-18T22:59:17.086Z,101668.56
2023-02-18T23:01:49.538Z,101665.06
2023-02-18T23:04:19.116Z,101672.06
2023-02-18T23:06:47.224Z,101662.44
2023-02-18T23:09:19.979Z,101661.53
2023-02-18T23:11:54.520Z,101653.63
2023-02-18T23:14:22.059Z,101646.59
2023-02-18T23:17:10.621Z,101645.72
2023-02-18T23:19:39.833Z,101646.59
2023-02-18T23:22:08.430Z,101645.72
2023-02-18T23:24:39.518Z,101650.13
2023-02-18T23:27:10.173Z,101657.19
2023-02-18T23:29:38.195Z,101642.25
2023-02-18T23:32:06.612Z,101644.00
2023-02-18T23:34:34.860Z,101648.47
2023-02-18T23:37:01.957Z,101648.50
2023-02-18T23:39:29.580Z,101644.97
2023-02-18T23:41:56.845Z,101652.06
2023-02-18T23:44:26.386Z,101649.44
2023-02-18T23:46:53.745Z,101649.44
2023-02-18T23:49:24.878Z,101648.56
2023-02-18T23:51:55.280Z,101645.06
2023-02-18T23:54:23.840Z,101641.56
2023-02-18T23:56:50.990Z,101647.72
2023-02-18T23:59:18.527Z,101642.50
